Time;durP1;ratioP1;P1;durP2;ratioP2;P2;SDS_P1;SDS_P2;PMS_P1;PMS_P2;Temp;Humidity;BMP_temperature;BMP_pressure;BME280_temperature;BME280_humidity;BME280_pressure;Samples;Min_cycle;Max_cycle;Signal;HPM_P1;HPM_P2
2022/05/30 03:18:45;;;;;;;75.43;36.35;;;11.50;99.90;;;;;;5891449;22;20250;-84
2022/05/30 03:21:12;;;;;;;72.97;31.30;;;11.50;99.90;;;;;;5060558;28;20194;-86
2022/05/30 03:23:38;;;;;;;70.72;25.33;;;11.40;99.90;;;;;;5059793;28;20766;-86
2022/05/30 03:26:04;;;;;;;75.80;34.80;;;11.50;99.90;;;;;;5059792;28;20184;-86
2022/05/30 03:28:31;;;;;;;75.88;35.78;;;11.40;99.90;;;;;;5059037;28;20165;-85
2022/05/30 03:30:57;;;;;;;79.63;34.83;;;11.40;99.90;;;;;;5059261;28;20232;-85
2022/05/30 03:33:23;;;;;;;77.43;34.90;;;11.40;99.90;;;;;;5058858;28;20215;-86
2022/05/30 03:35:49;;;;;;;77.23;35.50;;;11.40;99.90;;;;;;5058645;28;20180;-86
2022/05/30 03:38:15;;;;;;;75.67;36.87;;;11.30;99.90;;;;;;5058410;28;20160;-86
2022/05/30 03:40:40;;;;;;;76.47;36.43;;;11.40;99.90;;;;;;5058720;28;20180;-85
2022/05/30 03:43:09;;;;;;;78.63;41.03;;;11.40;99.90;;;;;;5057500;28;20403;-86
2022/05/30 03:45:37;;;;;;;83.47;55.75;;;11.40;99.90;;;;;;5058738;28;20176;-86
2022/05/30 03:48:04;;;;;;;77.78;44.15;;;11.30;99.90;;;;;;5059195;28;20153;-85
2022/05/30 03:50:32;;;;;;;76.53;41.45;;;11.40;99.90;;;;;;5059177;28;20199;-86
2022/05/30 03:53:04;;;;;;;80.32;45.17;;;11.40;99.90;;;;;;5059051;28;20168;-85
2022/05/30 03:55:42;;;;;;;79.45;44.40;;;11.40;99.90;;;;;;5061222;28;20157;-87
2022/05/30 03:58:09;;;;;;;76.68;40.03;;;11.40;99.90;;;;;;5058331;28;20156;-86
2022/05/30 04:00:35;;;;;;;74.57;33.10;;;11.50;99.90;;;;;;5059748;28;20184;-86
2022/05/30 04:03:02;;;;;;;79.13;44.47;;;11.60;99.90;;;;;;5058559;28;20161;-86
2022/05/30 04:05:29;;;;;;;77.20;39.63;;;11.50;99.90;;;;;;5058780;28;20586;-86
2022/05/30 04:07:55;;;;;;;79.63;46.50;;;11.50;99.90;;;;;;5059221;28;20180;-86
2022/05/30 04:10:21;;;;;;;79.15;44.25;;;11.60;99.90;;;;;;5059452;28;20169;-86
2022/05/30 04:12:51;;;;;;;82.35;52.97;;;11.60;99.90;;;;;;5056906;28;20172;-85
2022/05/30 04:15:23;;;;;;;80.18;45.20;;;11.60;99.90;;;;;;5057631;28;20658;-86
2022/05/30 04:17:49;;;;;;;77.97;44.33;;;11.60;99.90;;;;;;5058679;28;20171;-87
2022/05/30 04:20:15;;;;;;;81.40;42.47;;;11.70;99.90;;;;;;5058778;28;20172;-86
2022/05/30 04:22:44;;;;;;;79.43;30.02;;;11.70;99.90;;;;;;5058159;28;20415;-87
2022/05/30 04:25:10;;;;;;;78.57;43.28;;;11.70;99.90;;;;;;5057598;28;20164;-87
2022/05/30 04:27:35;;;;;;;91.33;72.53;;;11.60;99.90;;;;;;5056391;28;20284;-85
2022/05/30 04:30:01;;;;;;;106.37;95.50;;;11.60;99.90;;;;;;5058791;28;20427;-86
2022/05/30 04:32:27;;;;;;;85.00;57.73;;;11.60;99.90;;;;;;5057874;28;20260;-87
2022/05/30 04:34:53;;;;;;;93.20;71.03;;;11.60;99.90;;;;;;5058143;28;20176;-88
2022/05/30 04:37:21;;;;;;;94.17;77.93;;;11.60;99.90;;;;;;5058756;28;20181;-87
2022/05/30 04:39:47;;;;;;;86.15;66.53;;;11.60;99.90;;;;;;5058341;28;20630;-87
2022/05/30 04:42:12;;;;;;;86.17;58.17;;;11.70;99.90;;;;;;5058347;28;20227;-88
2022/05/30 04:44:38;;;;;;;94.70;61.33;;;11.70;99.90;;;;;;5057893;28;20240;-86
2022/05/30 04:47:05;;;;;;;86.23;67.97;;;11.70;99.90;;;;;;5057730;28;20187;-87
2022/05/30 04:49:31;;;;;;;98.85;81.45;;;11.70;99.90;;;;;;5057896;28;20161;-86
2022/05/30 04:51:57;;;;;;;102.85;89.90;;;11.80;99.90;;;;;;5057881;28;20335;-87
2022/05/30 04:54:25;;;;;;;82.97;61.47;;;11.90;99.90;;;;;;5057581;28;20207;-86
2022/05/30 04:56:54;;;;;;;80.13;47.20;;;11.90;99.90;;;;;;5057917;28;20188;-86
2022/05/30 04:59:20;;;;;;;83.75;60.83;;;12.00;99.90;;;;;;5057944;28;20156;-85
2022/05/30 05:01:45;;;;;;;83.10;58.73;;;12.00;99.90;;;;;;5057320;28;20211;-85
2022/05/30 05:04:11;;;;;;;84.47;62.70;;;12.00;99.90;;;;;;5056704;28;20247;-87
2022/05/30 05:06:38;;;;;;;82.03;49.37;;;12.00;99.90;;;;;;5056149;28;20681;-85
2022/05/30 05:09:07;;;;;;;83.70;47.60;;;12.00;99.90;;;;;;5055815;28;20410;-86
2022/05/30 05:11:36;;;;;;;76.30;39.83;;;12.00;99.90;;;;;;5058048;28;20407;-86
2022/05/30 05:14:02;;;;;;;84.05;49.92;;;12.10;99.90;;;;;;5060989;28;20292;-86
2022/05/30 05:16:30;;;;;;;77.97;37.17;;;12.00;99.90;;;;;;5062995;28;20596;-86
2022/05/30 05:18:56;;;;;;;77.30;37.83;;;12.10;99.90;;;;;;5062645;28;20407;-86
2022/05/30 05:21:33;;;;;;;78.18;36.00;;;12.10;99.90;;;;;;5063115;28;20441;-86
2022/05/30 05:24:03;;;;;;;76.15;35.05;;;12.10;99.90;;;;;;5061768;28;20196;-86
2022/05/30 05:26:29;;;;;;;77.82;33.58;;;12.10;99.90;;;;;;5063728;28;20566;-86
2022/05/30 05:28:54;;;;;;;77.77;32.63;;;12.10;99.90;;;;;;5062944;28;20164;-87
2022/05/30 05:31:24;;;;;;;73.00;31.00;;;12.20;99.90;;;;;;5060871;28;20542;-87
2022/05/30 05:33:51;;;;;;;74.50;30.87;;;12.20;99.90;;;;;;5060997;28;20927;-86
2022/05/30 05:36:22;;;;;;;77.93;34.30;;;12.20;99.90;;;;;;5060420;28;20469;-87
2022/05/30 05:38:49;;;;;;;72.03;29.38;;;12.20;99.90;;;;;;5062477;28;20825;-86
2022/05/30 05:41:15;;;;;;;74.37;26.87;;;12.20;99.90;;;;;;5060787;28;20273;-86
2022/05/30 05:43:41;;;;;;;76.33;29.67;;;12.30;99.90;;;;;;5060857;28;20419;-87
2022/05/30 05:46:13;;;;;;;75.77;23.10;;;12.30;99.90;;;;;;5061826;28;20421;-87
2022/05/30 05:48:39;;;;;;;72.23;24.00;;;12.40;99.90;;;;;;5061786;28;20161;-87
2022/05/30 05:51:05;;;;;;;72.80;20.40;;;12.40;99.90;;;;;;5061366;28;20474;-86
2022/05/30 05:53:31;;;;;;;79.43;22.23;;;12.50;99.90;;;;;;5061148;28;20172;-86
2022/05/30 05:55:56;;;;;;;72.03;18.73;;;12.50;99.90;;;;;;5063100;28;20428;-86
2022/05/30 05:58:22;;;;;;;69.73;21.60;;;12.60;99.90;;;;;;5062812;28;20161;-85
2022/05/30 06:00:48;;;;;;;70.37;17.87;;;12.50;99.90;;;;;;5061560;28;20185;-86
2022/05/30 06:03:13;;;;;;;71.63;20.50;;;12.50;99.90;;;;;;5062382;28;20220;-87
2022/05/30 06:05:39;;;;;;;72.50;22.43;;;12.50;99.90;;;;;;5060885;28;20279;-87
2022/05/30 06:08:06;;;;;;;72.20;19.37;;;12.50;99.90;;;;;;5060537;28;20172;-86
2022/05/30 06:10:33;;;;;;;71.23;17.60;;;12.50;99.90;;;;;;5060881;28;20509;-86
2022/05/30 06:12:59;;;;;;;69.43;20.87;;;12.50;99.90;;;;;;5062720;28;20494;-87
2022/05/30 06:15:24;;;;;;;78.07;23.57;;;12.50;99.90;;;;;;5062230;28;20438;-86
2022/05/30 06:17:50;;;;;;;73.07;25.47;;;12.50;99.90;;;;;;5062065;28;20403;-86
2022/05/30 06:20:17;;;;;;;77.00;22.93;;;12.70;99.90;;;;;;5062295;28;20184;-86
2022/05/30 06:22:46;;;;;;;74.37;20.70;;;12.80;99.90;;;;;;5062112;28;20192;-86
2022/05/30 06:25:12;;;;;;;69.37;16.00;;;12.80;99.90;;;;;;5060936;28;20403;-87
2022/05/30 06:27:38;;;;;;;72.47;20.13;;;12.70;99.90;;;;;;5062179;28;20419;-86
2022/05/30 06:30:04;;;;;;;73.07;21.40;;;12.70;99.90;;;;;;5061112;28;20886;-86
2022/05/30 06:32:30;;;;;;;72.57;21.27;;;12.90;99.90;;;;;;5060102;28;20161;-86
2022/05/30 06:34:59;;;;;;;70.87;17.80;;;12.80;99.90;;;;;;5061322;28;20920;-86
2022/05/30 06:37:24;;;;;;;72.20;20.60;;;12.90;99.90;;;;;;5059422;28;20590;-85
2022/05/30 06:39:52;;;;;;;71.20;11.30;;;12.90;99.90;;;;;;5060235;28;20411;-86
2022/05/30 06:42:18;;;;;;;71.77;11.27;;;13.10;99.90;;;;;;5061953;28;20453;-86
2022/05/30 06:44:43;;;;;;;68.00;13.37;;;13.00;99.90;;;;;;5059834;28;20498;-86
2022/05/30 06:47:09;;;;;;;69.20;14.40;;;13.00;99.90;;;;;;5062212;28;20224;-86
2022/05/30 06:49:35;;;;;;;70.30;14.93;;;13.00;99.90;;;;;;5062996;28;20224;-86
2022/05/30 06:52:01;;;;;;;77.67;11.00;;;13.00;99.90;;;;;;5060339;28;20693;-87
2022/05/30 06:54:27;;;;;;;69.63;9.07;;;13.20;99.90;;;;;;5060105;28;20458;-86
2022/05/30 06:59:37;;;;;;;67.53;7.00;;;13.20;99.90;;;;;;5063529;28;20407;-87
2022/05/30 07:02:05;;;;;;;70.63;7.10;;;13.30;99.90;;;;;;5062901;28;20446;-86
2022/05/30 07:04:32;;;;;;;74.30;6.80;;;13.30;99.90;;;;;;5060542;28;20179;-86
2022/05/30 07:07:00;;;;;;;71.40;8.40;;;13.30;99.90;;;;;;5060307;28;20431;-86
2022/05/30 07:09:26;;;;;;;70.73;6.77;;;13.50;99.90;;;;;;5059593;28;20434;-87
2022/05/30 07:11:55;;;;;;;70.93;6.97;;;13.60;99.90;;;;;;5059999;28;20403;-87
2022/05/30 07:14:20;;;;;;;69.63;7.27;;;13.60;99.50;;;;;;5058914;28;20171;-86
2022/05/30 07:16:46;;;;;;;70.97;6.77;;;13.50;99.90;;;;;;5059855;28;20423;-87
2022/05/30 07:19:14;;;;;;;68.50;5.90;;;13.60;99.90;;;;;;5060374;28;20524;-86
2022/05/30 07:21:41;;;;;;;67.20;6.60;;;13.70;99.90;;;;;;5060655;28;20196;-86
2022/05/30 07:24:09;;;;;;;71.10;7.33;;;13.80;99.50;;;;;;5061517;28;20410;-86
2022/05/30 07:26:34;;;;;;;71.07;7.57;;;13.80;99.90;;;;;;5059865;28;20498;-87
2022/05/30 07:29:00;;;;;;;72.83;7.60;;;13.80;97.70;;;;;;5059199;28;20457;-86
2022/05/30 07:31:28;;;;;;;76.83;8.77;;;13.90;97.10;;;;;;5060477;28;20185;-86
2022/05/30 07:33:54;;;;;;;74.83;9.03;;;13.90;97.20;;;;;;5060349;28;20187;-86
2022/05/30 07:36:24;;;;;;;70.40;8.80;;;13.80;94.00;;;;;;5060470;28;20423;-86
2022/05/30 07:38:50;;;;;;;73.73;9.60;;;13.90;97.00;;;;;;5059527;28;20442;-86
2022/05/30 07:41:16;;;;;;;73.57;9.13;;;13.90;94.60;;;;;;5060143;28;20574;-86
2022/05/30 07:43:43;;;;;;;71.63;9.00;;;13.90;96.30;;;;;;5060474;28;20407;-86
2022/05/30 07:46:11;;;;;;;69.20;8.90;;;14.00;94.60;;;;;;5060453;28;20188;-86
2022/05/30 07:48:37;;;;;;;74.03;9.10;;;14.00;94.00;;;;;;5059138;28;20963;-86
2022/05/30 07:51:03;;;;;;;69.87;8.13;;;14.10;94.80;;;;;;5059896;28;20447;-86
2022/05/30 07:53:29;;;;;;;77.33;8.63;;;14.00;90.50;;;;;;5059720;28;20453;-86
2022/05/30 07:55:55;;;;;;;69.13;7.13;;;14.00;91.20;;;;;;5060270;28;20430;-86
2022/05/30 07:58:21;;;;;;;74.03;9.33;;;14.10;91.80;;;;;;5058359;28;20503;-86
2022/05/30 08:00:50;;;;;;;67.80;8.90;;;14.10;94.60;;;;;;5058947;28;20999;-87
2022/05/30 08:03:16;;;;;;;71.23;7.63;;;14.00;92.30;;;;;;5058282;28;20195;-86
2022/05/30 08:05:46;;;;;;;72.70;8.60;;;14.00;87.70;;;;;;5060859;28;20426;-86
2022/05/30 08:08:12;;;;;;;71.50;8.90;;;13.70;86.30;;;;;;5059778;28;20396;-86
2022/05/30 08:10:38;;;;;;;69.47;10.00;;;13.90;92.80;;;;;;5058971;28;20474;-86
2022/05/30 08:13:04;;;;;;;72.43;7.03;;;14.00;91.70;;;;;;5060350;28;20453;-86
2022/05/30 08:15:30;;;;;;;69.00;10.17;;;13.90;81.00;;;;;;5060421;28;20251;-86
2022/05/30 08:17:58;;;;;;;69.67;7.70;;;13.80;84.80;;;;;;5059067;28;20901;-86
2022/05/30 08:20:30;;;;;;;71.20;8.47;;;13.90;91.10;;;;;;5059625;28;20431;-86
2022/05/30 08:22:56;;;;;;;70.10;8.50;;;14.10;94.00;;;;;;5059937;28;20758;-86
2022/05/30 08:25:22;;;;;;;69.30;8.43;;;14.20;90.80;;;;;;5058977;28;20414;-87
2022/05/30 08:27:48;;;;;;;71.60;6.83;;;14.40;91.10;;;;;;5058469;28;20395;-87
2022/05/30 08:30:18;;;;;;;70.97;6.80;;;14.60;85.00;;;;;;5058622;28;20404;-86
2022/05/30 08:32:45;;;;;;;70.90;5.17;;;14.60;74.50;;;;;;5057778;28;20775;-87
2022/05/30 08:35:15;;;;;;;68.37;5.77;;;14.70;69.30;;;;;;5060080;28;20419;-87
2022/05/30 08:37:42;;;;;;;69.70;6.13;;;14.60;68.20;;;;;;5059335;28;20411;-87
2022/05/30 08:43:01;;;;;;;70.70;6.87;;;14.70;65.70;;;;;;5058929;28;20388;-86
2022/05/30 08:45:28;;;;;;;67.30;5.73;;;14.80;73.00;;;;;;5058268;28;20494;-86
2022/05/30 08:47:56;;;;;;;72.90;6.27;;;15.00;67.70;;;;;;5059173;28;20217;-86
2022/05/30 08:51:05;;;;;;;71.43;5.90;;;15.20;57.70;;;;;;5058640;28;20409;-86
2022/05/30 08:53:50;;;;;;;67.93;5.53;;;15.20;62.10;;;;;;5059243;28;20396;-86
2022/05/30 08:56:22;;;;;;;68.77;5.07;;;15.40;56.70;;;;;;5059251;28;20404;-86
2022/05/30 08:59:11;;;;;;;70.43;5.37;;;15.60;51.70;;;;;;5060458;28;20376;-85
2022/05/30 09:01:45;;;;;;;66.63;4.37;;;15.80;48.70;;;;;;5029313;28;20457;-86
2022/05/30 09:04:25;;;;;;;69.37;4.90;;;15.70;33.10;;;;;;5059840;28;20435;-86
2022/05/30 09:06:57;;;;;;;67.27;4.40;;;15.60;34.30;;;;;;5059703;28;20460;-86
2022/05/30 09:09:48;;;;;;;66.10;4.07;;;15.80;32.20;;;;;;5059825;28;20387;-86
2022/05/30 09:12:25;;;;;;;67.07;4.37;;;15.90;31.20;;;;;;5059766;28;20400;-85
2022/05/30 09:15:00;;;;;;;70.47;5.80;;;15.70;23.10;;;;;;5058093;28;20485;-86
2022/05/30 09:17:39;;;;;;;69.47;6.57;;;15.70;28.10;;;;;;5058418;28;20448;-86
2022/05/30 09:31:45;;;;;;;73.10;6.60;;;16.00;25.70;;;;;;1193306;22;20752;-87
2022/05/30 09:38:24;;;;;;;;;;;;;;;;;;;;;
2022/05/30 09:41:10;;;;;;;68.57;5.03;;;16.80;2.10;;;;;;5012571;28;20474;-90
2022/05/30 09:44:29;;;;;;;71.80;5.77;;;16.90;4.00;;;;;;5012941;28;20537;-90
2022/05/30 09:47:44;;;;;;;69.27;4.80;;;17.30;2.40;;;;;;5012028;28;20452;-90
2022/05/30 09:51:19;;;;;;;;;;;;;;;;;;;;;
2022/05/30 09:54:01;;;;;;;69.27;8.27;;;17.40;1.00;;;;;;4953604;28;20968;-90
2022/05/30 10:01:26;;;;;;;;;;;;;;;;;;;;;
2022/05/30 10:43:52;;;;;;;;;;;;;;;;;;;;;
2022/05/30 11:21:14;;;;;;;;;;;;;;;;;;;;;
2022/05/30 14:16:24;;;;;;;68.80;4.70;;;21.10;1.00;;;;;;4679820;26;20476;-89
2022/05/30 14:23:11;;;;;;;;;;;;;;;;;;;;;
2022/05/30 14:29:51;;;;;;;68.87;4.50;;;20.60;1.00;;;;;;5075439;28;20470;-88
2022/05/30 14:33:08;;;;;;;68.97;4.43;;;20.90;1.00;;;;;;5055350;28;20418;-88
2022/05/30 15:19:35;;;;;;;67.27;3.33;;;20.40;1.00;;;;;;3074904;22;20966;-85
2022/05/30 15:22:06;;;;;;;68.60;3.40;;;20.90;1.00;;;;;;5101464;28;20543;-85
2022/05/30 15:24:35;;;;;;;65.87;2.90;;;21.20;1.00;;;;;;5101468;28;20381;-85
2022/05/30 15:27:02;;;;;;;67.10;3.90;;;21.50;1.00;;;;;;5082952;28;20518;-85
2022/05/30 15:29:28;;;;;;;66.97;3.50;;;21.30;1.00;;;;;;5084545;28;20406;-86
2022/05/30 15:32:01;;;;;;;68.57;4.50;;;21.30;1.00;;;;;;5100958;28;20443;-85
2022/05/30 15:34:28;;;;;;;67.43;3.47;;;21.70;1.00;;;;;;5101636;28;20392;-86
2022/05/30 15:36:54;;;;;;;72.20;3.33;;;22.00;1.00;;;;;;5082859;28;20437;-85
2022/05/30 15:39:20;;;;;;;66.70;3.60;;;22.60;1.00;;;;;;5083005;28;20413;-84
2022/05/30 15:41:55;;;;;;;67.93;3.77;;;22.50;1.00;;;;;;5085583;28;20460;-86
2022/05/30 15:44:26;;;;;;;66.50;3.40;;;22.80;1.00;;;;;;5100763;28;20251;-85
2022/05/30 15:46:53;;;;;;;68.63;3.50;;;23.40;1.00;;;;;;5085091;28;20432;-85
2022/05/30 15:49:25;;;;;;;68.00;3.50;;;23.90;1.00;;;;;;5082427;28;20397;-85
2022/05/30 15:51:55;;;;;;;66.50;3.20;;;24.80;1.00;;;;;;5103355;28;20413;-84
2022/05/30 15:57:17;;;;;;;67.23;3.10;;;25.70;1.00;;;;;;5103573;28;20520;-85
2022/05/30 15:59:47;;;;;;;67.40;3.50;;;25.70;1.00;;;;;;5103266;28;20405;-85
2022/05/30 16:02:13;;;;;;;68.50;4.90;;;26.00;1.00;;;;;;5083273;28;20495;-85
2022/05/30 16:04:40;;;;;;;66.97;3.30;;;26.40;1.00;;;;;;5083105;28;20402;-85
2022/05/30 16:07:06;;;;;;;68.77;5.00;;;26.30;1.00;;;;;;5083356;28;20421;-85
2022/05/30 16:09:36;;;;;;;66.63;4.30;;;26.40;1.00;;;;;;5103304;28;20426;-85
2022/05/30 16:12:02;;;;;;;67.53;4.47;;;26.00;1.00;;;;;;5101772;28;20182;-85
2022/05/30 16:14:29;;;;;;;67.80;4.50;;;25.90;1.00;;;;;;5101290;28;20406;-85
2022/05/30 16:16:56;;;;;;;67.47;4.00;;;25.70;1.00;;;;;;5104808;28;20424;-83
2022/05/30 16:19:22;;;;;;;67.37;3.50;;;25.40;1.00;;;;;;5088497;28;20450;-83
2022/05/30 16:21:52;;;;;;;66.90;3.53;;;25.40;1.00;;;;;;5101137;28;20446;-85
2022/05/30 16:24:20;;;;;;;66.23;3.70;;;25.40;1.00;;;;;;5100996;28;20395;-84
2022/05/30 16:26:50;;;;;;;68.20;3.87;;;25.40;1.00;;;;;;5100990;28;20420;-84
2022/05/30 16:29:16;;;;;;;67.10;3.00;;;25.00;1.00;;;;;;5083232;28;20403;-86
2022/05/30 16:31:42;;;;;;;67.67;3.60;;;24.90;1.00;;;;;;5102072;28;20461;-83
2022/05/30 16:34:08;;;;;;;71.67;3.30;;;24.80;1.00;;;;;;5082498;28;20404;-83
2022/05/30 16:36:39;;;;;;;66.80;2.90;;;25.00;1.00;;;;;;5082008;28;20522;-86
2022/05/30 16:39:08;;;;;;;66.40;3.20;;;25.30;1.00;;;;;;5099979;28;20434;-86
2022/05/30 16:41:35;;;;;;;67.07;2.80;;;24.90;1.00;;;;;;5100079;28;20443;-84
2022/05/30 16:44:01;;;;;;;67.27;2.83;;;24.90;1.00;;;;;;5083029;28;20429;-83
2022/05/30 16:46:28;;;;;;;66.03;2.43;;;24.90;1.00;;;;;;5083359;28;20463;-82
2022/05/30 16:48:56;;;;;;;67.77;2.80;;;24.80;1.00;;;;;;5084871;28;20810;-84
2022/05/30 16:51:24;;;;;;;66.90;2.80;;;24.70;1.00;;;;;;5084978;28;20411;-83
2022/05/30 16:53:50;;;;;;;66.67;3.07;;;25.00;1.00;;;;;;5084354;28;20425;-83
2022/05/30 16:56:16;;;;;;;66.70;2.93;;;25.60;1.00;;;;;;5101967;28;20428;-83
2022/05/30 16:58:43;;;;;;;68.37;3.10;;;25.90;1.00;;;;;;5084954;28;20427;-84
2022/05/30 17:01:09;;;;;;;68.17;3.10;;;25.40;1.00;;;;;;5103526;28;20168;-84
2022/05/30 17:03:36;;;;;;;65.57;2.37;;;24.80;1.00;;;;;;5084162;28;20409;-83
2022/05/30 17:06:04;;;;;;;67.27;2.87;;;24.10;1.00;;;;;;5102545;28;20514;-84
2022/05/30 17:08:33;;;;;;;68.00;2.60;;;24.00;1.00;;;;;;5083543;28;20413;-83
2022/05/30 17:10:58;;;;;;;66.50;3.20;;;24.10;1.00;;;;;;5088470;28;20436;-83
2022/05/30 17:13:27;;;;;;;66.67;2.30;;;23.90;1.00;;;;;;5106088;28;20440;-83
2022/05/30 17:15:58;;;;;;;72.00;2.80;;;24.00;1.00;;;;;;5106036;28;20185;-83
2022/05/30 17:18:24;;;;;;;66.27;2.73;;;24.30;1.00;;;;;;5106014;28;20392;-83
2022/05/30 17:20:51;;;;;;;66.50;2.60;;;24.40;1.00;;;;;;5105714;28;20991;-86
2022/05/30 17:23:19;;;;;;;66.13;3.10;;;24.30;1.00;;;;;;5085814;28;20422;-84
2022/05/30 17:25:49;;;;;;;65.70;2.50;;;24.00;1.00;;;;;;5103718;28;20496;-84
2022/05/30 17:31:08;;;;;;;66.17;3.00;;;23.20;1.00;;;;;;5103721;28;20406;-83
2022/05/30 17:33:33;;;;;;;69.50;3.63;;;22.60;1.00;;;;;;5085786;28;20413;-84
2022/05/30 17:35:59;;;;;;;68.43;3.70;;;22.70;1.00;;;;;;5085862;28;20425;-84
2022/05/30 17:38:25;;;;;;;74.40;4.63;;;22.60;1.00;;;;;;5103581;28;20186;-83
2022/05/30 17:40:51;;;;;;;70.83;3.63;;;22.70;1.00;;;;;;5103705;28;20234;-84
2022/05/30 17:43:19;;;;;;;66.80;4.63;;;22.30;1.00;;;;;;5085606;28;20460;-84
2022/05/30 17:45:52;;;;;;;68.87;4.53;;;22.20;1.00;;;;;;5103554;28;20425;-84
2022/05/30 17:48:27;;;;;;;67.03;5.40;;;22.10;1.00;;;;;;5085824;28;20416;-84
2022/05/30 17:51:07;;;;;;;66.90;4.40;;;22.00;1.00;;;;;;5086216;28;20427;-84
2022/05/30 17:53:33;;;;;;;68.30;4.27;;;21.70;1.00;;;;;;5086059;28;20492;-84
2022/05/30 17:56:05;;;;;;;71.07;5.80;;;21.30;1.00;;;;;;5089120;28;20475;-85
2022/05/30 17:58:31;;;;;;;67.60;4.00;;;20.90;1.00;;;;;;5106625;28;20386;-85
2022/05/30 18:01:00;;;;;;;65.67;3.63;;;20.50;1.00;;;;;;5105274;28;20401;-86
2022/05/30 18:03:25;;;;;;;67.60;3.20;;;20.20;1.00;;;;;;5086112;28;20441;-85
2022/05/30 18:05:55;;;;;;;67.00;3.63;;;20.00;1.00;;;;;;5084725;28;20451;-85
2022/05/30 18:08:47;;;;;;;66.87;4.00;;;19.80;1.00;;;;;;5086564;28;20167;-84
2022/05/30 18:11:28;;;;;;;70.40;4.77;;;19.20;1.00;;;;;;5084404;28;20422;-83
2022/05/30 18:14:28;;;;;;;67.47;4.60;;;18.90;1.00;;;;;;5103256;28;20414;-85
2022/05/30 18:16:57;;;;;;;70.07;4.73;;;19.00;1.00;;;;;;5102984;28;20419;-84
2022/05/30 18:19:36;;;;;;;67.30;4.17;;;18.80;1.00;;;;;;5084932;28;20439;-85
2022/05/30 18:22:17;;;;;;;68.27;4.20;;;18.60;1.00;;;;;;5084499;28;20452;-85
2022/05/30 18:25:31;;;;;;;69.00;5.00;;;18.10;1.00;;;;;;5105408;28;20397;-85
2022/05/30 18:27:58;;;;;;;69.73;4.93;;;17.90;1.00;;;;;;5025818;28;20456;-85
2022/05/30 18:30:29;;;;;;;70.17;6.77;;;17.60;1.00;;;;;;5026540;28;20436;-85
2022/05/30 18:33:20;;;;;;;67.57;6.80;;;17.70;1.00;;;;;;5059330;28;20406;-85
2022/05/30 18:36:09;;;;;;;69.20;6.87;;;17.90;1.00;;;;;;5084465;28;20456;-83
2022/05/30 18:39:09;;;;;;;67.97;5.50;;;17.90;1.00;;;;;;5103358;28;20435;-85
2022/05/30 18:41:39;;;;;;;68.77;6.33;;;18.00;1.00;;;;;;5085200;28;20438;-84
2022/05/30 18:44:15;;;;;;;71.40;6.07;;;18.00;1.00;;;;;;5086189;28;20425;-85
2022/05/30 18:47:07;;;;;;;68.20;5.13;;;18.00;1.00;;;;;;5103531;28;20480;-85
2022/05/30 18:49:39;;;;;;;69.90;4.70;;;18.00;1.00;;;;;;5085417;28;20390;-85
2022/05/30 18:52:06;;;;;;;66.80;3.97;;;17.90;1.00;;;;;;5104014;28;20398;-85
2022/05/30 18:54:32;;;;;;;70.00;4.30;;;17.90;1.00;;;;;;5090809;28;20409;-85
2022/05/30 18:57:07;;;;;;;67.70;4.67;;;17.80;1.00;;;;;;5092263;28;20983;-85
2022/05/30 18:59:44;;;;;;;73.03;4.30;;;17.80;1.00;;;;;;5085206;28;20413;-85
2022/05/30 19:02:12;;;;;;;67.57;4.27;;;17.80;1.00;;;;;;5085685;28;20441;-85
2022/05/30 19:04:38;;;;;;;68.33;4.17;;;17.30;1.00;;;;;;5085589;28;20433;-85
2022/05/30 19:07:04;;;;;;;68.67;4.60;;;17.20;1.00;;;;;;5108242;28;20818;-85
2022/05/30 19:09:31;;;;;;;69.13;4.80;;;17.20;1.00;;;;;;5102152;28;20425;-85
2022/05/30 19:12:05;;;;;;;71.40;4.90;;;17.30;1.00;;;;;;5083786;28;20413;-85
2022/05/30 19:14:43;;;;;;;73.27;4.90;;;17.20;1.00;;;;;;5103069;28;20389;-85
2022/05/30 19:17:32;;;;;;;71.80;5.37;;;17.10;1.00;;;;;;5107859;28;20435;-85
2022/05/30 19:20:21;;;;;;;68.37;4.60;;;17.10;1.00;;;;;;5089242;28;20429;-85
2022/05/30 19:22:54;;;;;;;68.57;4.90;;;17.10;1.00;;;;;;5102503;28;20441;-85
2022/05/30 19:25:23;;;;;;;70.60;4.30;;;17.00;1.00;;;;;;5102616;28;20424;-85
2022/05/30 19:27:51;;;;;;;68.90;5.03;;;16.90;1.00;;;;;;5084385;28;20548;-85
2022/05/30 19:30:23;;;;;;;69.40;4.67;;;16.90;1.00;;;;;;5083901;28;20406;-85
2022/05/30 19:32:52;;;;;;;71.17;5.57;;;16.90;1.00;;;;;;5103433;28;20433;-85
2022/05/30 19:35:25;;;;;;;71.27;5.80;;;16.80;1.00;;;;;;5101242;28;20416;-85
2022/05/30 19:37:52;;;;;;;68.87;5.27;;;16.80;1.00;;;;;;5084422;28;20404;-85
2022/05/30 19:40:19;;;;;;;69.67;5.90;;;16.70;1.00;;;;;;5083460;28;20916;-85
2022/05/30 19:42:45;;;;;;;71.17;6.43;;;16.70;1.00;;;;;;5102027;28;20595;-85
2022/05/30 19:45:12;;;;;;;69.17;6.17;;;16.60;1.00;;;;;;5102479;28;20433;-86
2022/05/30 19:47:38;;;;;;;73.80;8.17;;;16.50;1.00;;;;;;5083460;28;20433;-85
2022/05/30 19:50:06;;;;;;;69.80;6.60;;;16.50;1.00;;;;;;5100794;28;20401;-85
2022/05/30 19:52:32;;;;;;;70.70;8.03;;;16.50;1.00;;;;;;5082949;28;20409;-85
2022/05/30 19:55:04;;;;;;;72.13;9.90;;;16.40;1.00;;;;;;5093233;28;20485;-85
2022/05/30 19:57:30;;;;;;;70.03;8.33;;;16.40;1.00;;;;;;5105044;28;20457;-85
2022/05/30 19:59:59;;;;;;;70.37;8.30;;;16.30;1.00;;;;;;5104702;28;20412;-85
2022/05/30 20:02:25;;;;;;;73.93;8.10;;;16.30;1.00;;;;;;5082612;28;20476;-85
2022/05/30 20:04:50;;;;;;;70.20;7.40;;;16.20;1.00;;;;;;5100753;28;20401;-85
2022/05/30 20:07:22;;;;;;;68.63;6.63;;;16.20;1.00;;;;;;5086136;28;20433;-85
2022/05/30 20:09:48;;;;;;;69.47;6.33;;;16.10;1.00;;;;;;5086675;28;20169;-85
2022/05/30 20:12:14;;;;;;;71.50;7.50;;;16.10;1.00;;;;;;5086415;28;20986;-85
2022/05/30 20:14:40;;;;;;;75.20;6.80;;;16.10;1.00;;;;;;5086238;28;20206;-85
2022/05/30 20:17:06;;;;;;;69.13;5.97;;;16.00;1.00;;;;;;5086077;28;20274;-85
2022/05/30 20:19:32;;;;;;;71.40;5.63;;;16.00;1.00;;;;;;5086692;28;20421;-85
2022/05/30 20:22:01;;;;;;;69.00;5.27;;;16.00;1.00;;;;;;5105658;28;20951;-85
2022/05/30 20:24:27;;;;;;;71.20;6.00;;;15.90;1.00;;;;;;5102725;28;20376;-84
2022/05/30 20:26:53;;;;;;;68.37;5.70;;;15.90;1.00;;;;;;5083535;28;20438;-85
2022/05/30 20:29:18;;;;;;;72.20;5.43;;;15.90;1.00;;;;;;5105429;28;20401;-85
2022/05/30 20:31:44;;;;;;;72.27;5.80;;;15.80;1.00;;;;;;5086523;28;20258;-85
2022/05/30 20:34:10;;;;;;;69.50;6.33;;;15.80;1.00;;;;;;5086789;28;20181;-85
2022/05/30 20:36:37;;;;;;;68.77;5.93;;;15.70;1.00;;;;;;5104893;28;20669;-85
2022/05/30 20:39:04;;;;;;;69.37;6.57;;;15.70;3.30;;;;;;5105491;28;20181;-85
2022/05/30 20:44:14;;;;;;;70.63;7.53;;;15.60;11.10;;;;;;5099901;28;20385;-85
2022/05/30 20:46:40;;;;;;;68.10;6.20;;;15.60;11.90;;;;;;5082100;28;20429;-85
2022/05/30 20:49:06;;;;;;;69.37;6.80;;;15.60;14.30;;;;;;5105920;28;20474;-85
2022/05/30 20:51:32;;;;;;;71.63;7.27;;;15.50;13.70;;;;;;5105941;28;20405;-85
2022/05/30 20:53:57;;;;;;;68.27;6.03;;;15.50;15.60;;;;;;5082639;28;20178;-85
2022/05/30 20:56:26;;;;;;;70.67;7.27;;;15.50;16.50;;;;;;5100159;28;20418;-85
2022/05/30 20:58:52;;;;;;;67.97;6.00;;;15.40;18.30;;;;;;5085381;28;20174;-85
2022/05/30 21:01:18;;;;;;;68.90;6.70;;;15.40;18.60;;;;;;5085331;28;20452;-85
2022/05/30 21:03:45;;;;;;;70.57;6.63;;;15.30;20.50;;;;;;5099978;28;20593;-85
2022/05/30 21:06:13;;;;;;;68.13;5.80;;;15.30;21.70;;;;;;5099813;28;20419;-85
2022/05/30 21:08:40;;;;;;;69.30;6.63;;;15.20;22.50;;;;;;5082226;28;20417;-85
2022/05/30 21:11:07;;;;;;;68.27;6.33;;;15.20;23.70;;;;;;5101173;28;20981;-85
2022/05/30 21:13:33;;;;;;;67.00;4.97;;;15.20;25.00;;;;;;5103489;28;20395;-85
2022/05/30 21:16:09;;;;;;;71.70;6.03;;;15.20;26.50;;;;;;5099978;28;20435;-85
2022/05/30 21:21:05;;;;;;;67.77;5.60;;;15.10;27.60;;;;;;5178718;22;20844;-88
2022/05/30 21:23:37;;;;;;;69.37;6.37;;;15.10;29.10;;;;;;5112193;28;20758;-88
2022/05/30 21:26:03;;;;;;;67.37;5.53;;;15.00;29.10;;;;;;5113355;28;20843;-88
2022/05/30 21:28:32;;;;;;;67.67;5.90;;;15.10;30.00;;;;;;5113379;28;20384;-88
2022/05/30 21:31:01;;;;;;;68.77;5.93;;;15.00;31.40;;;;;;5095358;28;20740;-88
2022/05/30 21:33:47;;;;;;;68.67;5.47;;;15.00;31.00;;;;;;5113370;28;20464;-88
2022/05/30 21:36:19;;;;;;;69.67;6.63;;;15.00;34.50;;;;;;5113288;28;20772;-88
2022/05/30 21:38:45;;;;;;;69.30;6.37;;;14.90;35.70;;;;;;5113661;28;20379;-88
2022/05/30 21:41:10;;;;;;;69.20;6.17;;;14.90;37.10;;;;;;5113459;28;20490;-89
2022/05/30 21:43:36;;;;;;;70.47;6.50;;;14.90;35.70;;;;;;5113670;28;20255;-88
2022/05/30 21:46:02;;;;;;;69.50;6.47;;;14.90;37.80;;;;;;5094834;28;20420;-88
2022/05/30 21:48:30;;;;;;;66.67;5.63;;;14.80;38.50;;;;;;5113091;28;20914;-88
2022/05/30 21:50:55;;;;;;;68.00;6.50;;;14.80;41.10;;;;;;5094747;28;20533;-88
2022/05/30 21:53:21;;;;;;;69.17;7.93;;;14.70;41.90;;;;;;5113180;28;20409;-88